^^
Station Historical Data
Daily Summary for June 21, 2017 Units:  Metric    English   Both
« Previous Day
Next Day »
Daily Weekly Monthly Yearly Custom
  High: Low: Average:
Temperature: 22.5 °C 5.9 °C 11.5 °C
Dew Point: 2.6 °C -1.8 °C 0.3 °C
Humidity: 65% 23% 48%
Wind Speed: 25.9km/h 0km/h 4.3km/h
Wind Gust: 30.6km/h - -
Wind- - WNW
Pressure: 1023.2 hPa 1018.2 hPa -
Precipitation: 0 mm    
Historical Graphs
 
 
Tabular Data for June 21, 2017
Time Temperature Dew Point Pressure Wind Wind Speed Wind Gust Humidity Rainfall Rate (Hourly) solar Conditions
00:09 7.4 °C -0.8 °C 1022.9 hPa Calm     56% 0 mm 0.0 W/m2
00:21 7.3 °C -0.7 °C 1022.6 hPa Calm     57% 0 mm 0.0 W/m2
02:05 8.3 °C -0.5 °C 1022.6 hPa Calm     54% 0 mm 0.0 W/m2
02:10 8.2 °C -0.8 °C 1022.6 hPa Calm     53% 0 mm 0.0 W/m2
02:15 7.8 °C -0.9 °C 1022.2 hPa Calm     54% 0 mm 0.0 W/m2
02:20 7.4 °C -1.1 °C 1022.2 hPa Calm     55% 0 mm 0.0 W/m2
02:26 7.2 °C -0.8 °C 1022.2 hPa Calm     57% 0 mm 0.0 W/m2
02:31 7.2 °C -0.3 °C 1022.2 hPa Calm     59% 0 mm 0.0 W/m2
02:36 7.3 °C -0.2 °C 1022.2 hPa Calm     59% 0 mm 0.0 W/m2
02:41 7.8 °C -0.2 °C 1022.2 hPa Calm     57% 0 mm 0.0 W/m2
02:47 8.4 °C -0.1 °C 1022.2 hPa Calm   1.6 km/h 55% 0 mm 0.0 W/m2
02:52 8.6 °C -0.2 °C 1022.2 hPa Calm     54% 0 mm 0.0 W/m2
02:57 8.5 °C -0.3 °C 1022.2 hPa Calm     54% 0 mm 0.0 W/m2
03:03 8.3 °C -0.5 °C 1021.9 hPa Calm     54% 0 mm 0.0 W/m2
03:08 8.3 °C -0.2 °C 1021.9 hPa Calm     55% 0 mm 0.0 W/m2
03:13 8.2 °C -0.3 °C 1021.9 hPa SW 9.7 km/h 9.7 km/h 55% 0 mm 0.0 W/m2
03:18 8.2 °C -0.1 °C 1021.9 hPa SW 4.7 km/h 8 km/h 56% 0 mm 0.0 W/m2
03:23 8.1 °C -0.2 °C 1021.9 hPa SW 7.9 km/h 9.7 km/h 56% 0 mm 0.0 W/m2
03:33 7.9 °C -0.3 °C 1021.9 hPa SW 4.7 km/h 11.3 km/h 56% 0 mm 0.0 W/m2
03:43 7.8 °C -0.2 °C 1021.9 hPa SW 1.4 km/h 11.3 km/h 57% 0 mm 0.0 W/m2
03:58 7.6 °C -0.1 °C 1021.9 hPa SW 3.2 km/h 9.7 km/h 58% 0 mm 0.0 W/m2
04:03 7.6 °C -0.1 °C 1021.9 hPa SW 7.9 km/h 8 km/h 58% 0 mm 0.0 W/m2
04:13 7.3 °C -0.4 °C 1021.9 hPa SW 1.4 km/h 6.4 km/h 58% 0 mm 0.0 W/m2
04:18 7.1 °C -0.6 °C 1021.9 hPa SW 4.7 km/h 8 km/h 58% 0 mm 0.0 W/m2
04:24 6.9 °C -0.3 °C 1021.9 hPa SW 1.4 km/h 6.4 km/h 60% 0 mm 0.0 W/m2
04:34 6.9 °C -0.1 °C 1021.9 hPa SW 3.2 km/h 8 km/h 61% 0 mm 0.0 W/m2
04:43 7.2 °C 0 °C 1021.9 hPa SW 1.4 km/h 6.4 km/h 60% 0 mm 0.0 W/m2
04:49 7.3 °C 0 °C 1021.9 hPa SW 3.2 km/h 9.7 km/h 60% 0 mm 0.0 W/m2
04:59 8 °C 0.5 °C 1022.2 hPa Calm   11.3 km/h 59% 0 mm 0.0 W/m2
05:04 8.3 °C 0.5 °C 1022.2 hPa SW 3.2 km/h 11.3 km/h 58% 0 mm 0.0 W/m2
05:09 8.6 °C 0.6 °C 1021.9 hPa SW 6.4 km/h 11.3 km/h 57% 0 mm 0.0 W/m2
05:14 8.8 °C 0.7 °C 1022.2 hPa SW 9.7 km/h 11.3 km/h 57% 0 mm 0.0 W/m2
05:19 8.9 °C 0.6 °C 1022.2 hPa Calm   9.7 km/h 56% 0 mm 0.0 W/m2
05:24 8.8 °C 0.7 °C 1022.2 hPa Calm     57% 0 mm 0.0 W/m2
05:29 8.4 °C 0.1 °C 1022.2 hPa Calm     56% 0 mm 0.0 W/m2
05:35 8 °C 0.2 °C 1022.2 hPa Calm     58% 0 mm 0.0 W/m2
05:40 7.6 °C 0.1 °C 1022.2 hPa Calm     59% 0 mm 0.0 W/m2
05:46 7.3 °C 0 °C 1022.6 hPa SW 3.2 km/h 3.2 km/h 60% 0 mm 0.0 W/m2
05:51 7.1 °C -0.4 °C 1022.6 hPa Calm     59% 0 mm 0.0 W/m2
06:01 6.3 °C -0.7 °C 1022.9 hPa SW 6.4 km/h 6.4 km/h 61% 0 mm 0.0 W/m2
06:11 5.9 °C -0.4 °C 1022.9 hPa SW 1.4 km/h 8 km/h 64% 0 mm 0.0 W/m2
06:26 6.6 °C 0.5 °C 1022.9 hPa SW 4.7 km/h 9.7 km/h 65% 0 mm 0.0 W/m2
06:31 7.1 °C 0.5 °C 1022.9 hPa Calm   9.7 km/h 63% 0 mm 0.0 W/m2
06:37 7.3 °C 0.5 °C 1022.9 hPa Calm   6.4 km/h 62% 0 mm 0.0 W/m2
06:42 7.4 °C 0.4 °C 1022.6 hPa SW 3.2 km/h 6.4 km/h 61% 0 mm 5.0 W/m2
06:52 7.7 °C 0.7 °C 1022.9 hPa SW 6.4 km/h 11.3 km/h 61% 0 mm 9.0 W/m2
07:07 7.9 °C 0.8 °C 1022.9 hPa Calm   4.8 km/h 61% 0 mm 14.0 W/m2
07:14 7.8 °C 0.7 °C 1022.9 hPa Calm   11.3 km/h 61% 0 mm 16.0 W/m2
07:17 7.8 °C 0.7 °C 1022.9 hPa SW 1.4 km/h 8 km/h 61% 0 mm 18.0 W/m2
07:29 7.7 °C 0.9 °C 1022.9 hPa SW 3.2 km/h 9.7 km/h 62% 0 mm 39.0 W/m2
07:35 7.8 °C 1 °C 1022.9 hPa Calm   11.3 km/h 62% 0 mm 100.0 W/m2
07:47 8.8 °C 1.2 °C 1022.9 hPa SW 6.4 km/h 8 km/h 59% 0 mm 134.0 W/m2
07:57 10.1 °C 2 °C 1022.9 hPa SW 7.9 km/h 12.9 km/h 57% 0 mm 172.0 W/m2
08:11 11.1 °C 2.4 °C 1022.9 hPa SW 13 km/h 14.5 km/h 55% 0 mm 225.0 W/m2
08:22 12 °C 2.4 °C 1022.9 hPa WNW 24.1 km/h 27.4 km/h 52% 0 mm 257.0 W/m2
08:33 12.1 °C 2.5 °C 1022.9 hPa NW 17.7 km/h 30.6 km/h 52% 0 mm 281.0 W/m2
08:43 12.5 °C 2.6 °C 1022.9 hPa NW 7.9 km/h 24.1 km/h 51% 0 mm 322.0 W/m2
08:55 12.8 °C 2.6 °C 1022.9 hPa NNW 7.9 km/h 22.5 km/h 50% 0 mm 348.0 W/m2
09:01 13.1 °C 2.6 °C 1023.2 hPa NNW 11.1 km/h 19.3 km/h 49% 0 mm 360.0 W/m2
09:10 13.4 °C 2.6 °C 1023.2 hPa NNW 20.9 km/h 20.9 km/h 48% 0 mm 385.0 W/m2
10:39 17.9 °C 1.4 °C 1022.2 hPa Calm   29 km/h 33% 0 mm 548.0 W/m2
10:44 17.9 °C 1.4 °C 1022.2 hPa NNW 19.5 km/h 30.6 km/h 33% 0 mm 554.0 W/m2
10:49 18.1 °C 1.6 °C 1022.2 hPa NNW 1.4 km/h 19.3 km/h 33% 0 mm 563.0 W/m2
10:54 18.2 °C 1.7 °C 1022.2 hPa NNW 14.3 km/h 24.1 km/h 33% 0 mm 566.0 W/m2
11:04 18.4 °C 1.8 °C 1021.9 hPa NNW 25.9 km/h 29 km/h 33% 0 mm 571.0 W/m2
11:24 18.8 °C 1.8 °C 1021.9 hPa Calm   25.7 km/h 32% 0 mm 582.0 W/m2
11:34 19.2 °C 1.7 °C 1021.6 hPa North 14.3 km/h 17.7 km/h 31% 0 mm 591.0 W/m2
11:50 19.6 °C 1.1 °C 1021.2 hPa North 1.4 km/h 20.9 km/h 29% 0 mm 592.0 W/m2
12:03 19.6 °C 1.1 °C 1021.2 hPa North 14.3 km/h 24.1 km/h 29% 0 mm 592.0 W/m2
12:09 19.8 °C 1.2 °C 1020.9 hPa North 1.4 km/h 20.9 km/h 29% 0 mm 589.0 W/m2
12:19 19.8 °C 1.2 °C 1020.5 hPa North 17.7 km/h 22.5 km/h 29% 0 mm 585.0 W/m2
12:25 20.1 °C 1.5 °C 1020.5 hPa North 3.2 km/h 19.3 km/h 29% 0 mm 585.0 W/m2
12:29 19.9 °C 1.3 °C 1020.2 hPa North 3.2 km/h 29 km/h 29% 0 mm 582.0 W/m2
12:34 20 °C 1.4 °C 1020.2 hPa North 9.7 km/h 24.1 km/h 29% 0 mm 580.0 W/m2
12:44 20.2 °C 1.6 °C 1019.9 hPa North 9.7 km/h 19.3 km/h 29% 0 mm 571.0 W/m2
12:59 20.6 °C 0.9 °C 1019.5 hPa North 9.7 km/h 20.9 km/h 27% 0 mm 561.0 W/m2
13:09 21 °C 1.3 °C 1019.5 hPa North 7.9 km/h 22.5 km/h 27% 0 mm 550.0 W/m2
13:19 20.9 °C 1.7 °C 1019.2 hPa North 20.9 km/h 22.5 km/h 28% 0 mm 538.0 W/m2
13:27 21.2 °C 1.5 °C 1019.2 hPa North 7.9 km/h 20.9 km/h 27% 0 mm 524.0 W/m2
13:37 21.6 °C 1.3 °C 1018.8 hPa Calm   12.9 km/h 26% 0 mm 512.0 W/m2
13:47 21.8 °C 0.9 °C 1018.5 hPa North 1.4 km/h 12.9 km/h 25% 0 mm 494.0 W/m2
13:56 21.9 °C 1 °C 1018.5 hPa Calm   6.4 km/h 25% 0 mm 473.0 W/m2
14:09 22.1 °C 1.1 °C 1018.5 hPa North 3.2 km/h 17.7 km/h 25% 0 mm 452.0 W/m2
14:19 22.4 °C 0.8 °C 1018.2 hPa Calm   9.7 km/h 24% 0 mm 432.0 W/m2
14:27 22.5 °C 0.3 °C 1018.2 hPa North 9.7 km/h 11.3 km/h 23% 0 mm 410.0 W/m2
22:20 11 °C -1.8 °C 1019.5 hPa Calm     41% 0 mm 0.0 W/m2
22:30 10.6 °C -1.5 °C 1019.5 hPa Calm     43% 0 mm 0.0 W/m2
22:35 10.4 °C -1.6 °C 1019.9 hPa Calm     43% 0 mm 0.0 W/m2
22:40 10.2 °C -1.8 °C 1019.9 hPa Calm     43% 0 mm 0.0 W/m2
22:45 9.9 °C -1.8 °C 1019.9 hPa Calm     44% 0 mm 0.0 W/m2
22:50 9.8 °C -1.6 °C 1019.5 hPa Calm     45% 0 mm 0.0 W/m2
22:55 9.8 °C -1.6 °C 1019.5 hPa Calm     45% 0 mm 0.0 W/m2
23:00 9.8 °C -1 °C 1019.5 hPa North 7.9 km/h 11.3 km/h 47% 0 mm 0.0 W/m2
23:05 10.1 °C -0.7 °C 1019.9 hPa North 9.7 km/h 9.7 km/h 47% 0 mm 0.0 W/m2
23:11 10.6 °C -0.5 °C 1019.5 hPa North 7.9 km/h 9.7 km/h 46% 0 mm 0.0 W/m2
23:16 10.8 °C -0.7 °C 1019.5 hPa Calm     45% 0 mm 0.0 W/m2
23:21 10.7 °C -0.8 °C 1019.5 hPa Calm     45% 0 mm 0.0 W/m2
23:26 10.5 °C -0.6 °C 1019.5 hPa North 7.9 km/h 9.7 km/h 46% 0 mm 0.0 W/m2
23:31 10.3 °C -0.8 °C 1019.5 hPa North 3.2 km/h 8 km/h 46% 0 mm 0.0 W/m2
23:37 10.1 °C -0.7 °C 1019.5 hPa Calm     47% 0 mm 0.0 W/m2
23:47 9.5 °C -1 °C 1019.5 hPa Calm     48% 0 mm 0.0 W/m2
23:52 9.2 °C -1.2 °C 1019.5 hPa Calm     48% 0 mm 0.0 W/m2
23:58 9 °C -1.1 °C 1019.2 hPa Calm     49% 0 mm 0.0 W/m2
Canyon Roadhouse, Fishriver Canyon, Namibia
Compliments of Weather Underground - 2.25 mb